sensor_id;sensor_type;location;lat;lon;timestamp;P1;durP1;ratioP1;P2;durP2;ratioP2
10463;SDS011;5279;42.048;24.638;2023-09-08T00:00:20;2.73;;;2.53;;
10463;SDS011;5279;42.048;24.638;2023-09-08T00:02:47;4.03;;;2.13;;
10463;SDS011;5279;42.048;24.638;2023-09-08T00:05:14;2.40;;;2.20;;
10463;SDS011;5279;42.048;24.638;2023-09-08T00:07:41;5.73;;;2.43;;
10463;SDS011;5279;42.048;24.638;2023-09-08T00:10:09;3.90;;;2.50;;
10463;SDS011;5279;42.048;24.638;2023-09-08T00:12:37;4.97;;;2.57;;
10463;SDS011;5279;42.048;24.638;2023-09-08T00:15:05;2.40;;;2.20;;
10463;SDS011;5279;42.048;24.638;2023-09-08T00:17:33;3.93;;;2.27;;
10463;SDS011;5279;42.048;24.638;2023-09-08T00:20:01;2.53;;;2.10;;
10463;SDS011;5279;42.048;24.638;2023-09-08T00:22:31;2.50;;;2.23;;
10463;SDS011;5279;42.048;24.638;2023-09-08T00:24:58;2.47;;;2.27;;
10463;SDS011;5279;42.048;24.638;2023-09-08T00:27:25;4.07;;;2.30;;
10463;SDS011;5279;42.048;24.638;2023-09-08T00:29:53;3.47;;;2.13;;
10463;SDS011;5279;42.048;24.638;2023-09-08T00:32:20;3.40;;;2.03;;
10463;SDS011;5279;42.048;24.638;2023-09-08T00:34:47;3.87;;;2.10;;
10463;SDS011;5279;42.048;24.638;2023-09-08T00:37:14;2.73;;;2.27;;
10463;SDS011;5279;42.048;24.638;2023-09-08T00:39:40;3.50;;;2.43;;
10463;SDS011;5279;42.048;24.638;2023-09-08T00:42:07;2.03;;;1.83;;
10463;SDS011;5279;42.048;24.638;2023-09-08T00:44:34;5.40;;;2.43;;
10463;SDS011;5279;42.048;24.638;2023-09-08T00:47:03;3.43;;;2.70;;
10463;SDS011;5279;42.048;24.638;2023-09-08T00:49:30;3.20;;;2.50;;
10463;SDS011;5279;42.048;24.638;2023-09-08T00:51:58;3.77;;;2.47;;
10463;SDS011;5279;42.048;24.638;2023-09-08T00:54:25;3.57;;;2.27;;
10463;SDS011;5279;42.048;24.638;2023-09-08T00:56:52;4.70;;;2.60;;
10463;SDS011;5279;42.048;24.638;2023-09-08T00:59:23;5.37;;;2.10;;
10463;SDS011;5279;42.048;24.638;2023-09-08T01:01:51;3.80;;;2.10;;
10463;SDS011;5279;42.048;24.638;2023-09-08T01:04:20;4.33;;;2.33;;
10463;SDS011;5279;42.048;24.638;2023-09-08T01:06:47;3.17;;;2.40;;
10463;SDS011;5279;42.048;24.638;2023-09-08T01:09:14;8.03;;;2.50;;
10463;SDS011;5279;42.048;24.638;2023-09-08T01:11:42;2.23;;;2.03;;
10463;SDS011;5279;42.048;24.638;2023-09-08T01:14:11;3.47;;;2.40;;
10463;SDS011;5279;42.048;24.638;2023-09-08T01:16:38;4.47;;;2.47;;
10463;SDS011;5279;42.048;24.638;2023-09-08T01:19:06;3.77;;;2.40;;
10463;SDS011;5279;42.048;24.638;2023-09-08T01:27:35;4.53;;;2.43;;
10463;SDS011;5279;42.048;24.638;2023-09-08T01:30:04;3.23;;;2.67;;
10463;SDS011;5279;42.048;24.638;2023-09-08T01:32:32;3.70;;;2.47;;
10463;SDS011;5279;42.048;24.638;2023-09-08T01:35:01;1.90;;;1.77;;
10463;SDS011;5279;42.048;24.638;2023-09-08T01:37:28;4.33;;;2.03;;
10463;SDS011;5279;42.048;24.638;2023-09-08T01:39:55;2.23;;;2.07;;
10463;SDS011;5279;42.048;24.638;2023-09-08T01:42:23;9.17;;;3.50;;
10463;SDS011;5279;42.048;24.638;2023-09-08T01:44:50;2.20;;;2.00;;
10463;SDS011;5279;42.048;24.638;2023-09-08T01:47:17;2.70;;;2.40;;
10463;SDS011;5279;42.048;24.638;2023-09-08T01:49:45;4.47;;;2.20;;
10463;SDS011;5279;42.048;24.638;2023-09-08T01:52:12;2.60;;;2.40;;
10463;SDS011;5279;42.048;24.638;2023-09-08T01:54:38;2.57;;;1.93;;
10463;SDS011;5279;42.048;24.638;2023-09-08T01:57:05;3.27;;;2.30;;
10463;SDS011;5279;42.048;24.638;2023-09-08T01:59:34;4.10;;;2.80;;
10463;SDS011;5279;42.048;24.638;2023-09-08T02:02:02;3.17;;;2.50;;
10463;SDS011;5279;42.048;24.638;2023-09-08T02:04:29;6.60;;;2.47;;
10463;SDS011;5279;42.048;24.638;2023-09-08T02:06:56;4.83;;;2.60;;
10463;SDS011;5279;42.048;24.638;2023-09-08T02:09:29;2.47;;;2.23;;
10463;SDS011;5279;42.048;24.638;2023-09-08T02:11:57;2.40;;;2.20;;
10463;SDS011;5279;42.048;24.638;2023-09-08T02:14:24;4.67;;;2.10;;
10463;SDS011;5279;42.048;24.638;2023-09-08T02:16:52;3.90;;;2.67;;
10463;SDS011;5279;42.048;24.638;2023-09-08T02:19:19;2.83;;;2.30;;
10463;SDS011;5279;42.048;24.638;2023-09-08T02:21:46;5.67;;;2.67;;
10463;SDS011;5279;42.048;24.638;2023-09-08T02:24:13;4.60;;;2.87;;
10463;SDS011;5279;42.048;24.638;2023-09-08T02:26:40;3.53;;;2.33;;
10463;SDS011;5279;42.048;24.638;2023-09-08T02:29:07;7.47;;;2.90;;
10463;SDS011;5279;42.048;24.638;2023-09-08T02:31:34;3.90;;;2.77;;
10463;SDS011;5279;42.048;24.638;2023-09-08T02:34:03;4.03;;;3.23;;
10463;SDS011;5279;42.048;24.638;2023-09-08T02:36:30;3.37;;;2.40;;
10463;SDS011;5279;42.048;24.638;2023-09-08T02:38:56;3.37;;;2.87;;
10463;SDS011;5279;42.048;24.638;2023-09-08T02:41:23;4.50;;;2.30;;
10463;SDS011;5279;42.048;24.638;2023-09-08T02:43:50;3.60;;;2.67;;
10463;SDS011;5279;42.048;24.638;2023-09-08T02:46:17;5.93;;;3.30;;
10463;SDS011;5279;42.048;24.638;2023-09-08T02:48:44;4.03;;;3.00;;
10463;SDS011;5279;42.048;24.638;2023-09-08T02:51:13;3.77;;;2.27;;
10463;SDS011;5279;42.048;24.638;2023-09-08T02:53:40;3.80;;;2.83;;
10463;SDS011;5279;42.048;24.638;2023-09-08T02:56:06;3.83;;;2.77;;
10463;SDS011;5279;42.048;24.638;2023-09-08T02:58:34;3.60;;;2.90;;
10463;SDS011;5279;42.048;24.638;2023-09-08T03:01:11;3.10;;;2.63;;
10463;SDS011;5279;42.048;24.638;2023-09-08T03:03:39;2.90;;;2.70;;
10463;SDS011;5279;42.048;24.638;2023-09-08T03:06:07;5.17;;;2.67;;
10463;SDS011;5279;42.048;24.638;2023-09-08T03:08:35;5.87;;;2.57;;
10463;SDS011;5279;42.048;24.638;2023-09-08T03:11:03;3.87;;;2.60;;
10463;SDS011;5279;42.048;24.638;2023-09-08T03:13:30;5.00;;;2.70;;
10463;SDS011;5279;42.048;24.638;2023-09-08T03:16:01;5.87;;;3.60;;
10463;SDS011;5279;42.048;24.638;2023-09-08T03:18:29;4.97;;;3.30;;
10463;SDS011;5279;42.048;24.638;2023-09-08T03:20:58;4.33;;;3.23;;
10463;SDS011;5279;42.048;24.638;2023-09-08T03:23:25;4.53;;;3.57;;
10463;SDS011;5279;42.048;24.638;2023-09-08T03:25:54;3.70;;;3.40;;
10463;SDS011;5279;42.048;24.638;2023-09-08T03:28:21;4.30;;;3.47;;
10463;SDS011;5279;42.048;24.638;2023-09-08T03:30:48;7.30;;;3.13;;
10463;SDS011;5279;42.048;24.638;2023-09-08T03:33:14;5.63;;;3.57;;
10463;SDS011;5279;42.048;24.638;2023-09-08T03:35:41;3.63;;;3.33;;
10463;SDS011;5279;42.048;24.638;2023-09-08T03:38:09;4.40;;;3.80;;
10463;SDS011;5279;42.048;24.638;2023-09-08T03:40:36;6.43;;;3.60;;
10463;SDS011;5279;42.048;24.638;2023-09-08T03:43:04;5.57;;;3.60;;
10463;SDS011;5279;42.048;24.638;2023-09-08T03:45:31;6.70;;;4.47;;
10463;SDS011;5279;42.048;24.638;2023-09-08T03:47:58;4.17;;;3.77;;
10463;SDS011;5279;42.048;24.638;2023-09-08T03:50:25;3.77;;;3.47;;
10463;SDS011;5279;42.048;24.638;2023-09-08T03:52:52;4.43;;;3.73;;
10463;SDS011;5279;42.048;24.638;2023-09-08T03:55:19;4.03;;;3.63;;
10463;SDS011;5279;42.048;24.638;2023-09-08T03:57:46;4.63;;;3.87;;
10463;SDS011;5279;42.048;24.638;2023-09-08T04:00:15;5.03;;;4.33;;
10463;SDS011;5279;42.048;24.638;2023-09-08T04:02:46;9.97;;;3.70;;
10463;SDS011;5279;42.048;24.638;2023-09-08T04:05:13;4.03;;;3.53;;
10463;SDS011;5279;42.048;24.638;2023-09-08T04:07:40;3.87;;;3.13;;
10463;SDS011;5279;42.048;24.638;2023-09-08T04:10:07;4.10;;;3.00;;
10463;SDS011;5279;42.048;24.638;2023-09-08T04:12:34;4.13;;;3.73;;
10463;SDS011;5279;42.048;24.638;2023-09-08T04:15:01;7.03;;;3.20;;
10463;SDS011;5279;42.048;24.638;2023-09-08T04:17:30;6.07;;;3.43;;
10463;SDS011;5279;42.048;24.638;2023-09-08T04:19:57;3.60;;;3.30;;
10463;SDS011;5279;42.048;24.638;2023-09-08T04:22:23;4.43;;;3.37;;
10463;SDS011;5279;42.048;24.638;2023-09-08T04:24:50;3.80;;;3.50;;
10463;SDS011;5279;42.048;24.638;2023-09-08T04:27:18;5.57;;;3.93;;
10463;SDS011;5279;42.048;24.638;2023-09-08T04:29:45;4.60;;;3.83;;
10463;SDS011;5279;42.048;24.638;2023-09-08T04:32:12;3.67;;;3.37;;
10463;SDS011;5279;42.048;24.638;2023-09-08T04:34:41;3.37;;;2.90;;
10463;SDS011;5279;42.048;24.638;2023-09-08T04:37:08;5.07;;;3.60;;
10463;SDS011;5279;42.048;24.638;2023-09-08T04:39:36;4.27;;;3.50;;
10463;SDS011;5279;42.048;24.638;2023-09-08T04:42:03;6.00;;;3.50;;
10463;SDS011;5279;42.048;24.638;2023-09-08T04:44:30;5.37;;;4.30;;
10463;SDS011;5279;42.048;24.638;2023-09-08T04:46:57;4.93;;;3.70;;
10463;SDS011;5279;42.048;24.638;2023-09-08T04:49:24;4.70;;;3.10;;
10463;SDS011;5279;42.048;24.638;2023-09-08T04:51:53;4.03;;;2.97;;
10463;SDS011;5279;42.048;24.638;2023-09-08T04:54:20;3.40;;;3.10;;
10463;SDS011;5279;42.048;24.638;2023-09-08T04:56:47;4.57;;;3.33;;
10463;SDS011;5279;42.048;24.638;2023-09-08T04:59:15;3.90;;;2.87;;
10463;SDS011;5279;42.048;24.638;2023-09-08T05:01:41;3.83;;;3.03;;
10463;SDS011;5279;42.048;24.638;2023-09-08T05:04:08;5.77;;;3.23;;
10463;SDS011;5279;42.048;24.638;2023-09-08T05:06:36;3.30;;;2.90;;
10463;SDS011;5279;42.048;24.638;2023-09-08T05:09:04;6.27;;;3.20;;
10463;SDS011;5279;42.048;24.638;2023-09-08T05:11:32;3.57;;;2.97;;
10463;SDS011;5279;42.048;24.638;2023-09-08T05:13:59;3.40;;;3.10;;
10463;SDS011;5279;42.048;24.638;2023-09-08T05:16:26;3.77;;;3.17;;
10463;SDS011;5279;42.048;24.638;2023-09-08T05:19:02;3.00;;;2.70;;
10463;SDS011;5279;42.048;24.638;2023-09-08T05:21:30;4.70;;;3.20;;
10463;SDS011;5279;42.048;24.638;2023-09-08T05:23:57;3.83;;;2.83;;
10463;SDS011;5279;42.048;24.638;2023-09-08T05:26:25;3.10;;;2.80;;
10463;SDS011;5279;42.048;24.638;2023-09-08T05:28:52;4.07;;;3.13;;
10463;SDS011;5279;42.048;24.638;2023-09-08T05:31:19;4.10;;;2.87;;
10463;SDS011;5279;42.048;24.638;2023-09-08T05:33:46;3.07;;;2.73;;
10463;SDS011;5279;42.048;24.638;2023-09-08T05:36:12;2.77;;;2.57;;
10463;SDS011;5279;42.048;24.638;2023-09-08T05:38:39;4.13;;;2.80;;
10463;SDS011;5279;42.048;24.638;2023-09-08T05:41:06;3.33;;;2.97;;
10463;SDS011;5279;42.048;24.638;2023-09-08T05:43:35;6.87;;;3.00;;
10463;SDS011;5279;42.048;24.638;2023-09-08T05:46:01;3.93;;;2.57;;
10463;SDS011;5279;42.048;24.638;2023-09-08T05:48:29;4.17;;;2.87;;
10463;SDS011;5279;42.048;24.638;2023-09-08T05:50:56;6.87;;;2.60;;
10463;SDS011;5279;42.048;24.638;2023-09-08T05:53:23;3.97;;;3.10;;
10463;SDS011;5279;42.048;24.638;2023-09-08T05:55:50;2.50;;;2.30;;
10463;SDS011;5279;42.048;24.638;2023-09-08T05:58:17;3.77;;;2.70;;
10463;SDS011;5279;42.048;24.638;2023-09-08T06:00:46;5.67;;;2.67;;
10463;SDS011;5279;42.048;24.638;2023-09-08T06:03:13;4.53;;;3.17;;
10463;SDS011;5279;42.048;24.638;2023-09-08T06:05:39;3.60;;;3.03;;
10463;SDS011;5279;42.048;24.638;2023-09-08T06:08:06;4.40;;;3.13;;
10463;SDS011;5279;42.048;24.638;2023-09-08T06:10:33;3.30;;;2.93;;
10463;SDS011;5279;42.048;24.638;2023-09-08T06:13:00;3.33;;;2.80;;
10463;SDS011;5279;42.048;24.638;2023-09-08T06:15:27;7.40;;;2.70;;
10463;SDS011;5279;42.048;24.638;2023-09-08T06:17:56;4.67;;;2.60;;
10463;SDS011;5279;42.048;24.638;2023-09-08T06:20:23;5.47;;;2.67;;
10463;SDS011;5279;42.048;24.638;2023-09-08T06:22:52;4.07;;;3.00;;
10463;SDS011;5279;42.048;24.638;2023-09-08T06:25:18;3.00;;;2.80;;
10463;SDS011;5279;42.048;24.638;2023-09-08T06:27:45;3.97;;;2.87;;
10463;SDS011;5279;42.048;24.638;2023-09-08T06:30:12;4.90;;;3.07;;
10463;SDS011;5279;42.048;24.638;2023-09-08T06:32:41;5.63;;;3.30;;
10463;SDS011;5279;42.048;24.638;2023-09-08T06:35:09;6.10;;;2.87;;
10463;SDS011;5279;42.048;24.638;2023-09-08T06:37:37;3.93;;;2.63;;
10463;SDS011;5279;42.048;24.638;2023-09-08T06:40:05;3.73;;;2.53;;
10463;SDS011;5279;42.048;24.638;2023-09-08T06:42:33;3.33;;;2.93;;
10463;SDS011;5279;42.048;24.638;2023-09-08T06:45:00;8.17;;;3.40;;
10463;SDS011;5279;42.048;24.638;2023-09-08T06:47:27;4.97;;;2.63;;
10463;SDS011;5279;42.048;24.638;2023-09-08T06:49:53;3.33;;;3.03;;
10463;SDS011;5279;42.048;24.638;2023-09-08T06:52:22;4.97;;;2.90;;
10463;SDS011;5279;42.048;24.638;2023-09-08T06:54:49;4.80;;;2.93;;
10463;SDS011;5279;42.048;24.638;2023-09-08T06:57:17;7.40;;;3.07;;
10463;SDS011;5279;42.048;24.638;2023-09-08T06:59:46;4.00;;;3.43;;
10463;SDS011;5279;42.048;24.638;2023-09-08T07:02:13;8.60;;;3.67;;
10463;SDS011;5279;42.048;24.638;2023-09-08T07:04:39;3.93;;;3.13;;
10463;SDS011;5279;42.048;24.638;2023-09-08T07:07:06;5.03;;;3.50;;
10463;SDS011;5279;42.048;24.638;2023-09-08T07:09:35;9.90;;;3.60;;
10463;SDS011;5279;42.048;24.638;2023-09-08T07:12:03;4.90;;;4.40;;
10463;SDS011;5279;42.048;24.638;2023-09-08T07:14:31;5.53;;;3.30;;
10463;SDS011;5279;42.048;24.638;2023-09-08T07:16:58;4.07;;;3.27;;
10463;SDS011;5279;42.048;24.638;2023-09-08T07:19:25;5.40;;;3.60;;
10463;SDS011;5279;42.048;24.638;2023-09-08T07:21:52;4.00;;;3.37;;
10463;SDS011;5279;42.048;24.638;2023-09-08T07:24:19;7.50;;;3.53;;
10463;SDS011;5279;42.048;24.638;2023-09-08T07:26:48;4.57;;;3.50;;
10463;SDS011;5279;42.048;24.638;2023-09-08T07:29:15;5.33;;;3.67;;
10463;SDS011;5279;42.048;24.638;2023-09-08T07:31:42;4.27;;;3.17;;
10463;SDS011;5279;42.048;24.638;2023-09-08T07:34:10;4.07;;;3.53;;
10463;SDS011;5279;42.048;24.638;2023-09-08T07:36:37;3.93;;;3.53;;
10463;SDS011;5279;42.048;24.638;2023-09-08T07:39:13;4.07;;;3.53;;
10463;SDS011;5279;42.048;24.638;2023-09-08T07:41:40;3.70;;;3.40;;
10463;SDS011;5279;42.048;24.638;2023-09-08T07:44:09;4.80;;;3.33;;
10463;SDS011;5279;42.048;24.638;2023-09-08T07:46:36;5.07;;;3.90;;
10463;SDS011;5279;42.048;24.638;2023-09-08T07:49:03;3.30;;;3.00;;
10463;SDS011;5279;42.048;24.638;2023-09-08T07:51:29;4.17;;;3.77;;
10463;SDS011;5279;42.048;24.638;2023-09-08T07:53:56;4.30;;;3.53;;
10463;SDS011;5279;42.048;24.638;2023-09-08T07:56:23;3.83;;;3.37;;
10463;SDS011;5279;42.048;24.638;2023-09-08T07:58:50;4.03;;;3.07;;
10463;SDS011;5279;42.048;24.638;2023-09-08T08:01:18;4.33;;;3.43;;
10463;SDS011;5279;42.048;24.638;2023-09-08T08:03:45;5.80;;;3.47;;
10463;SDS011;5279;42.048;24.638;2023-09-08T08:06:12;5.10;;;3.70;;
10463;SDS011;5279;42.048;24.638;2023-09-08T08:08:39;3.87;;;3.10;;
10463;SDS011;5279;42.048;24.638;2023-09-08T08:11:10;2.80;;;2.60;;
10463;SDS011;5279;42.048;24.638;2023-09-08T08:13:38;3.00;;;2.70;;
10463;SDS011;5279;42.048;24.638;2023-09-08T08:16:05;4.33;;;3.53;;
10463;SDS011;5279;42.048;24.638;2023-09-08T08:18:33;4.33;;;2.87;;
10463;SDS011;5279;42.048;24.638;2023-09-08T08:21:00;4.50;;;3.50;;
10463;SDS011;5279;42.048;24.638;2023-09-08T08:23:28;3.23;;;2.93;;
10463;SDS011;5279;42.048;24.638;2023-09-08T08:26:00;3.80;;;3.37;;
10463;SDS011;5279;42.048;24.638;2023-09-08T08:28:28;4.15;;;3.28;;
10463;SDS011;5279;42.048;24.638;2023-09-08T08:30:55;3.30;;;3.00;;
10463;SDS011;5279;42.048;24.638;2023-09-08T08:33:22;4.28;;;3.72;;
10463;SDS011;5279;42.048;24.638;2023-09-08T08:35:52;3.53;;;2.80;;
10463;SDS011;5279;42.048;24.638;2023-09-08T08:38:20;5.28;;;3.20;;
10463;SDS011;5279;42.048;24.638;2023-09-08T08:40:47;3.22;;;2.67;;
10463;SDS011;5279;42.048;24.638;2023-09-08T08:43:14;3.45;;;2.60;;
10463;SDS011;5279;42.048;24.638;2023-09-08T08:45:41;3.45;;;2.90;;
10463;SDS011;5279;42.048;24.638;2023-09-08T08:48:09;3.40;;;3.10;;
10463;SDS011;5279;42.048;24.638;2023-09-08T08:50:39;2.90;;;2.60;;
10463;SDS011;5279;42.048;24.638;2023-09-08T08:53:09;3.83;;;2.67;;
10463;SDS011;5279;42.048;24.638;2023-09-08T08:55:38;4.55;;;3.30;;
10463;SDS011;5279;42.048;24.638;2023-09-08T08:58:05;2.80;;;2.50;;
10463;SDS011;5279;42.048;24.638;2023-09-08T09:00:33;2.90;;;2.70;;
10463;SDS011;5279;42.048;24.638;2023-09-08T09:03:01;3.90;;;2.70;;
10463;SDS011;5279;42.048;24.638;2023-09-08T09:05:31;3.47;;;2.67;;
10463;SDS011;5279;42.048;24.638;2023-09-08T09:07:59;4.60;;;2.72;;
10463;SDS011;5279;42.048;24.638;2023-09-08T09:10:30;4.57;;;2.88;;
10463;SDS011;5279;42.048;24.638;2023-09-08T09:12:57;2.70;;;2.40;;
10463;SDS011;5279;42.048;24.638;2023-09-08T09:15:30;3.17;;;2.53;;
10463;SDS011;5279;42.048;24.638;2023-09-08T09:18:01;3.00;;;2.80;;
10463;SDS011;5279;42.048;24.638;2023-09-08T09:20:29;4.50;;;3.17;;
10463;SDS011;5279;42.048;24.638;2023-09-08T09:22:56;6.28;;;2.92;;
10463;SDS011;5279;42.048;24.638;2023-09-08T09:25:23;3.92;;;2.90;;
10463;SDS011;5279;42.048;24.638;2023-09-08T09:27:53;4.65;;;2.80;;
10463;SDS011;5279;42.048;24.638;2023-09-08T09:30:21;6.07;;;2.72;;
10463;SDS011;5279;42.048;24.638;2023-09-08T09:32:50;3.63;;;2.90;;
10463;SDS011;5279;42.048;24.638;2023-09-08T09:35:30;6.78;;;2.90;;
10463;SDS011;5279;42.048;24.638;2023-09-08T09:38:06;3.28;;;2.47;;
10463;SDS011;5279;42.048;24.638;2023-09-08T09:40:34;3.35;;;2.90;;
10463;SDS011;5279;42.048;24.638;2023-09-08T09:43:02;3.95;;;2.75;;
10463;SDS011;5279;42.048;24.638;2023-09-08T09:45:31;2.75;;;2.55;;
10463;SDS011;5279;42.048;24.638;2023-09-08T09:47:58;4.57;;;2.42;;
10463;SDS011;5279;42.048;24.638;2023-09-08T09:50:28;3.10;;;2.72;;
10463;SDS011;5279;42.048;24.638;2023-09-08T09:52:58;6.50;;;2.97;;
10463;SDS011;5279;42.048;24.638;2023-09-08T09:55:26;4.38;;;2.70;;
10463;SDS011;5279;42.048;24.638;2023-09-08T09:57:55;2.50;;;2.20;;
10463;SDS011;5279;42.048;24.638;2023-09-08T10:00:27;4.50;;;2.55;;
10463;SDS011;5279;42.048;24.638;2023-09-08T10:02:54;4.65;;;2.85;;
10463;SDS011;5279;42.048;24.638;2023-09-08T10:05:22;5.78;;;3.17;;
10463;SDS011;5279;42.048;24.638;2023-09-08T10:07:50;7.55;;;2.53;;
10463;SDS011;5279;42.048;24.638;2023-09-08T10:10:18;5.70;;;3.03;;
10463;SDS011;5279;42.048;24.638;2023-09-08T10:12:46;3.00;;;2.40;;
10463;SDS011;5279;42.048;24.638;2023-09-08T10:15:19;8.73;;;3.13;;
10463;SDS011;5279;42.048;24.638;2023-09-08T10:17:52;4.60;;;2.50;;
10463;SDS011;5279;42.048;24.638;2023-09-08T10:20:20;2.38;;;2.10;;
10463;SDS011;5279;42.048;24.638;2023-09-08T10:22:50;5.68;;;2.80;;
10463;SDS011;5279;42.048;24.638;2023-09-08T10:25:19;4.20;;;2.35;;
10463;SDS011;5279;42.048;24.638;2023-09-08T10:27:47;4.70;;;2.70;;
10463;SDS011;5279;42.048;24.638;2023-09-08T10:30:15;5.00;;;2.33;;
10463;SDS011;5279;42.048;24.638;2023-09-08T10:32:45;2.85;;;2.38;;
10463;SDS011;5279;42.048;24.638;2023-09-08T10:35:16;2.38;;;2.17;;
10463;SDS011;5279;42.048;24.638;2023-09-08T10:37:44;2.83;;;2.22;;
10463;SDS011;5279;42.048;24.638;2023-09-08T10:40:20;2.95;;;2.30;;
10463;SDS011;5279;42.048;24.638;2023-09-08T10:42:48;3.33;;;2.35;;
10463;SDS011;5279;42.048;24.638;2023-09-08T10:45:16;2.22;;;1.92;;
10463;SDS011;5279;42.048;24.638;2023-09-08T10:47:56;4.80;;;2.53;;
10463;SDS011;5279;42.048;24.638;2023-09-08T10:50:31;7.05;;;2.50;;
10463;SDS011;5279;42.048;24.638;2023-09-08T10:53:10;2.50;;;2.30;;
10463;SDS011;5279;42.048;24.638;2023-09-08T10:55:40;3.70;;;2.45;;
10463;SDS011;5279;42.048;24.638;2023-09-08T10:58:09;2.72;;;2.05;;
10463;SDS011;5279;42.048;24.638;2023-09-08T11:00:43;4.20;;;2.42;;
10463;SDS011;5279;42.048;24.638;2023-09-08T11:03:11;2.63;;;2.30;;
10463;SDS011;5279;42.048;24.638;2023-09-08T11:05:40;2.58;;;2.38;;
10463;SDS011;5279;42.048;24.638;2023-09-08T11:08:08;4.40;;;2.33;;
10463;SDS011;5279;42.048;24.638;2023-09-08T11:10:35;3.20;;;2.47;;
10463;SDS011;5279;42.048;24.638;2023-09-08T11:13:05;4.65;;;2.22;;
10463;SDS011;5279;42.048;24.638;2023-09-08T11:15:32;4.47;;;2.38;;
10463;SDS011;5279;42.048;24.638;2023-09-08T11:18:04;2.65;;;2.38;;
10463;SDS011;5279;42.048;24.638;2023-09-08T11:20:31;2.38;;;2.17;;
10463;SDS011;5279;42.048;24.638;2023-09-08T11:23:00;3.35;;;2.30;;
10463;SDS011;5279;42.048;24.638;2023-09-08T11:25:30;3.80;;;2.72;;
10463;SDS011;5279;42.048;24.638;2023-09-08T11:27:58;3.22;;;2.40;;
10463;SDS011;5279;42.048;24.638;2023-09-08T11:30:26;3.50;;;2.72;;
10463;SDS011;5279;42.048;24.638;2023-09-08T11:32:53;4.97;;;2.20;;
10463;SDS011;5279;42.048;24.638;2023-09-08T11:35:20;6.22;;;2.40;;
10463;SDS011;5279;42.048;24.638;2023-09-08T11:37:47;2.78;;;2.40;;
10463;SDS011;5279;42.048;24.638;2023-09-08T11:40:16;4.20;;;2.45;;
10463;SDS011;5279;42.048;24.638;2023-09-08T11:42:44;2.65;;;2.28;;
10463;SDS011;5279;42.048;24.638;2023-09-08T11:45:12;2.70;;;2.50;;
10463;SDS011;5279;42.048;24.638;2023-09-08T11:47:43;2.80;;;2.55;;
10463;SDS011;5279;42.048;24.638;2023-09-08T11:50:10;4.22;;;2.38;;
10463;SDS011;5279;42.048;24.638;2023-09-08T11:52:41;4.38;;;2.20;;
10463;SDS011;5279;42.048;24.638;2023-09-08T11:55:10;4.40;;;2.13;;
10463;SDS011;5279;42.048;24.638;2023-09-08T11:57:39;3.70;;;2.30;;
10463;SDS011;5279;42.048;24.638;2023-09-08T12:00:07;4.18;;;2.28;;
10463;SDS011;5279;42.048;24.638;2023-09-08T12:02:37;3.08;;;2.50;;
10463;SDS011;5279;42.048;24.638;2023-09-08T12:05:04;3.13;;;2.08;;
10463;SDS011;5279;42.048;24.638;2023-09-08T12:07:32;3.60;;;2.10;;
10463;SDS011;5279;42.048;24.638;2023-09-08T12:09:58;2.53;;;2.33;;
10463;SDS011;5279;42.048;24.638;2023-09-08T12:12:34;2.80;;;2.30;;
10463;SDS011;5279;42.048;24.638;2023-09-08T12:15:10;3.00;;;2.35;;
10463;SDS011;5279;42.048;24.638;2023-09-08T12:17:46;2.13;;;1.98;;
10463;SDS011;5279;42.048;24.638;2023-09-08T12:20:32;3.78;;;2.38;;
10463;SDS011;5279;42.048;24.638;2023-09-08T12:23:00;4.45;;;2.47;;
10463;SDS011;5279;42.048;24.638;2023-09-08T12:25:28;3.80;;;2.15;;
10463;SDS011;5279;42.048;24.638;2023-09-08T12:27:58;3.65;;;2.10;;
10463;SDS011;5279;42.048;24.638;2023-09-08T12:30:25;3.35;;;2.47;;
10463;SDS011;5279;42.048;24.638;2023-09-08T12:32:56;3.05;;;2.20;;
10463;SDS011;5279;42.048;24.638;2023-09-08T12:35:25;3.17;;;2.03;;
10463;SDS011;5279;42.048;24.638;2023-09-08T12:38:02;2.65;;;2.20;;
10463;SDS011;5279;42.048;24.638;2023-09-08T12:40:34;3.28;;;2.10;;
10463;SDS011;5279;42.048;24.638;2023-09-08T12:43:03;3.03;;;2.15;;
10463;SDS011;5279;42.048;24.638;2023-09-08T12:45:30;3.75;;;2.20;;
10463;SDS011;5279;42.048;24.638;2023-09-08T12:47:58;5.05;;;2.10;;
10463;SDS011;5279;42.048;24.638;2023-09-08T12:50:28;4.55;;;2.30;;
10463;SDS011;5279;42.048;24.638;2023-09-08T12:52:55;3.05;;;2.50;;
10463;SDS011;5279;42.048;24.638;2023-09-08T12:55:23;2.25;;;2.05;;
10463;SDS011;5279;42.048;24.638;2023-09-08T12:57:50;3.92;;;2.70;;
10463;SDS011;5279;42.048;24.638;2023-09-08T13:00:21;3.40;;;2.55;;
10463;SDS011;5279;42.048;24.638;2023-09-08T13:02:49;2.33;;;2.13;;
10463;SDS011;5279;42.048;24.638;2023-09-08T13:05:16;5.80;;;2.30;;
10463;SDS011;5279;42.048;24.638;2023-09-08T13:07:42;2.33;;;2.10;;
10463;SDS011;5279;42.048;24.638;2023-09-08T13:10:09;6.25;;;2.25;;
10463;SDS011;5279;42.048;24.638;2023-09-08T13:12:36;5.15;;;2.80;;
10463;SDS011;5279;42.048;24.638;2023-09-08T13:15:04;2.42;;;2.22;;
10463;SDS011;5279;42.048;24.638;2023-09-08T13:17:33;5.60;;;2.50;;
10463;SDS011;5279;42.048;24.638;2023-09-08T13:19:59;3.33;;;2.28;;
10463;SDS011;5279;42.048;24.638;2023-09-08T13:22:28;2.50;;;2.30;;
10463;SDS011;5279;42.048;24.638;2023-09-08T13:24:55;3.88;;;2.20;;
10463;SDS011;5279;42.048;24.638;2023-09-08T13:27:21;2.60;;;2.40;;
10463;SDS011;5279;42.048;24.638;2023-09-08T13:29:48;4.07;;;2.30;;
10463;SDS011;5279;42.048;24.638;2023-09-08T13:32:15;2.80;;;2.60;;
10463;SDS011;5279;42.048;24.638;2023-09-08T13:34:43;7.97;;;2.13;;
10463;SDS011;5279;42.048;24.638;2023-09-08T13:37:12;4.65;;;2.10;;
10463;SDS011;5279;42.048;24.638;2023-09-08T13:39:40;3.42;;;2.10;;
10463;SDS011;5279;42.048;24.638;2023-09-08T13:42:07;2.50;;;2.30;;
10463;SDS011;5279;42.048;24.638;2023-09-08T13:44:35;3.92;;;2.78;;
10463;SDS011;5279;42.048;24.638;2023-09-08T13:47:01;3.35;;;2.30;;
10463;SDS011;5279;42.048;24.638;2023-09-08T13:49:29;3.83;;;2.17;;
10463;SDS011;5279;42.048;24.638;2023-09-08T13:51:58;2.47;;;2.28;;
10463;SDS011;5279;42.048;24.638;2023-09-08T13:54:25;3.58;;;2.30;;
10463;SDS011;5279;42.048;24.638;2023-09-08T13:56:57;2.75;;;2.30;;
10463;SDS011;5279;42.048;24.638;2023-09-08T13:59:26;2.30;;;2.10;;
10463;SDS011;5279;42.048;24.638;2023-09-08T14:01:53;3.92;;;2.28;;
10463;SDS011;5279;42.048;24.638;2023-09-08T14:04:21;3.30;;;2.03;;
10463;SDS011;5279;42.048;24.638;2023-09-08T14:06:48;3.58;;;2.50;;
10463;SDS011;5279;42.048;24.638;2023-09-08T14:09:16;2.55;;;2.20;;
10463;SDS011;5279;42.048;24.638;2023-09-08T14:11:43;3.88;;;2.33;;
10463;SDS011;5279;42.048;24.638;2023-09-08T14:14:10;3.33;;;2.25;;
10463;SDS011;5279;42.048;24.638;2023-09-08T14:16:37;3.90;;;2.58;;
10463;SDS011;5279;42.048;24.638;2023-09-08T14:19:03;4.50;;;2.42;;
10463;SDS011;5279;42.048;24.638;2023-09-08T14:21:30;26.88;;;3.35;;
10463;SDS011;5279;42.048;24.638;2023-09-08T14:23:57;2.83;;;2.50;;
10463;SDS011;5279;42.048;24.638;2023-09-08T14:26:26;3.78;;;2.30;;
10463;SDS011;5279;42.048;24.638;2023-09-08T14:28:52;3.58;;;2.45;;
10463;SDS011;5279;42.048;24.638;2023-09-08T14:31:19;5.00;;;2.70;;
10463;SDS011;5279;42.048;24.638;2023-09-08T14:33:46;2.75;;;2.42;;
10463;SDS011;5279;42.048;24.638;2023-09-08T14:36:16;5.00;;;3.17;;
10463;SDS011;5279;42.048;24.638;2023-09-08T14:38:43;3.88;;;2.55;;
10463;SDS011;5279;42.048;24.638;2023-09-08T14:41:10;3.88;;;2.50;;
10463;SDS011;5279;42.048;24.638;2023-09-08T14:43:38;4.80;;;2.88;;
10463;SDS011;5279;42.048;24.638;2023-09-08T14:46:05;6.15;;;2.83;;
10463;SDS011;5279;42.048;24.638;2023-09-08T14:48:32;3.78;;;2.40;;
10463;SDS011;5279;42.048;24.638;2023-09-08T14:51:00;4.97;;;2.85;;
10463;SDS011;5279;42.048;24.638;2023-09-08T14:53:28;4.45;;;2.90;;
10463;SDS011;5279;42.048;24.638;2023-09-08T14:55:56;3.50;;;2.58;;
10463;SDS011;5279;42.048;24.638;2023-09-08T14:58:24;3.67;;;2.58;;